createdAt,value
2019-04-26T00:01:40.291Z,12.23
2019-04-26T00:04:10.281Z,12.07
2019-04-26T00:06:39.669Z,12.06
2019-04-26T00:09:24.453Z,12.20
2019-04-26T00:12:07.043Z,12.17
2019-04-26T00:14:53.033Z,12.20
2019-04-26T00:17:24.167Z,12.14
2019-04-26T00:19:53.677Z,11.82
2019-04-26T00:22:23.399Z,12.26
2019-04-26T00:24:52.693Z,12.15
2019-04-26T00:27:21.993Z,12.39
2019-04-26T00:29:51.174Z,12.41
2019-04-26T00:32:21.377Z,12.61
2019-04-26T00:34:50.654Z,12.70
2019-04-26T00:37:20.219Z,12.64
2019-04-26T00:39:49.529Z,12.64
2019-04-26T00:42:19.023Z,12.41
2019-04-26T00:44:48.501Z,12.34
2019-04-26T00:47:19.566Z,12.07
2019-04-26T00:49:49.733Z,12.33
2019-04-26T00:52:19.524Z,12.15
2019-04-26T00:54:49.224Z,12.10
2019-04-26T00:57:20.208Z,12.24
2019-04-26T00:59:50.302Z,12.19
2019-04-26T01:02:25.189Z,12.15
2019-04-26T01:04:54.422Z,12.08
2019-04-26T01:07:23.713Z,12.04
2019-04-26T01:09:52.969Z,12.25
2019-04-26T01:12:22.207Z,12.29
2019-04-26T01:14:51.430Z,12.11
2019-04-26T01:17:20.698Z,12.11
2019-04-26T01:19:51.245Z,12.09
2019-04-26T01:22:23.515Z,12.11
2019-04-26T01:24:55.107Z,11.90
2019-04-26T01:27:27.791Z,11.94
2019-04-26T01:30:00.130Z,12.20
2019-04-26T01:32:31.681Z,12.15
2019-04-26T01:35:01.069Z,11.63
2019-04-26T01:37:31.933Z,11.76
2019-04-26T01:40:05.717Z,11.75
2019-04-26T01:42:43.567Z,12.05
2019-04-26T01:45:32.138Z,11.87
2019-04-26T01:48:04.492Z,11.86
2019-04-26T01:50:35.475Z,11.81
2019-04-26T01:53:05.959Z,11.72
2019-04-26T01:55:35.235Z,11.87
2019-04-26T01:58:06.558Z,11.79
2019-04-26T02:00:40.503Z,11.70
2019-04-26T02:03:17.609Z,11.69
2019-04-26T02:05:49.121Z,11.55
2019-04-26T02:08:18.565Z,11.76
2019-04-26T02:10:47.962Z,11.74
2019-04-26T02:13:17.553Z,11.68
2019-04-26T02:15:46.999Z,11.68
2019-04-26T02:18:16.235Z,11.74
2019-04-26T02:20:52.897Z,11.89
2019-04-26T02:23:26.601Z,11.62
2019-04-26T02:25:55.797Z,11.66
2019-04-26T02:28:26.645Z,11.50
2019-04-26T02:30:56.049Z,11.46
2019-04-26T02:33:27.489Z,11.68
2019-04-26T02:35:56.400Z,11.66
2019-04-26T02:38:27.890Z,11.77
2019-04-26T02:40:56.931Z,11.79
2019-04-26T02:43:28.619Z,11.76
2019-04-26T02:46:00.456Z,11.98
2019-04-26T02:48:35.942Z,11.99
2019-04-26T02:51:08.370Z,11.69
2019-04-26T02:53:55.767Z,11.79
2019-04-26T02:56:43.115Z,11.80
2019-04-26T02:59:15.382Z,11.81
2019-04-26T03:01:45.107Z,11.56
2019-04-26T03:04:14.720Z,11.56
2019-04-26T03:07:02.417Z,11.72
2019-04-26T03:09:17.870Z,11.60
2019-04-26T03:11:59.210Z,11.67
2019-04-26T03:14:31.230Z,11.30
2019-04-26T03:17:07.836Z,11.58
2019-04-26T03:19:44.547Z,11.62
2019-04-26T03:22:22.865Z,11.71
2019-04-26T03:24:56.226Z,11.77
2019-04-26T03:27:35.739Z,11.66
2019-04-26T03:30:20.970Z,11.73
2019-04-26T03:33:04.448Z,11.49
2019-04-26T03:36:02.686Z,11.49
2019-04-26T03:38:51.069Z,11.65
2019-04-26T03:41:35.119Z,11.61
2019-04-26T03:44:10.243Z,11.61
2019-04-26T03:46:43.661Z,11.62
2019-04-26T03:49:42.042Z,11.76
2019-04-26T03:52:23.332Z,11.69
2019-04-26T03:54:58.544Z,11.70
2019-04-26T03:57:56.424Z,11.62
2019-04-26T04:00:30.007Z,11.54
2019-04-26T04:03:09.832Z,11.72
2019-04-26T04:05:49.422Z,11.72
2019-04-26T04:08:21.701Z,11.77
2019-04-26T04:10:56.809Z,11.72
2019-04-26T04:13:44.423Z,11.51
2019-04-26T04:16:32.002Z,11.48
2019-04-26T04:19:21.956Z,11.46
2019-04-26T04:22:06.163Z,11.23
2019-04-26T04:24:39.723Z,11.23
2019-04-26T04:27:15.479Z,11.23
2019-04-26T04:29:55.654Z,11.15
2019-04-26T04:32:51.994Z,11.25
2019-04-26T04:35:24.345Z,11.33
2019-04-26T04:38:09.304Z,11.23
2019-04-26T04:40:49.232Z,11.26
2019-04-26T04:43:34.754Z,11.38
2019-04-26T04:46:08.899Z,11.32
2019-04-26T04:48:47.056Z,11.32
2019-04-26T04:51:46.229Z,11.43
2019-04-26T04:54:42.693Z,11.62
2019-04-26T04:57:15.096Z,11.49
2019-04-26T04:59:52.978Z,11.58
2019-04-26T05:02:50.798Z,11.27
2019-04-26T05:06:07.718Z,11.27
2019-04-26T05:08:59.653Z,11.28
2019-04-26T05:11:34.455Z,11.22
2019-04-26T05:14:26.073Z,11.45
2019-04-26T05:17:34.807Z,11.34
2019-04-26T05:20:18.681Z,11.44
2019-04-26T05:23:23.892Z,11.70
2019-04-26T05:26:17.393Z,11.79
2019-04-26T05:29:03.100Z,11.70
2019-04-26T05:31:54.299Z,11.70
2019-04-26T05:34:30.972Z,11.83
2019-04-26T05:37:19.597Z,11.59
2019-04-26T05:40:00.951Z,11.60
2019-04-26T05:43:03.572Z,11.59
2019-04-26T05:45:49.997Z,11.30
2019-04-26T05:48:51.924Z,11.30
2019-04-26T05:51:53.584Z,11.23
2019-04-26T05:54:52.235Z,11.52
2019-04-26T05:57:40.701Z,11.77
2019-04-26T06:00:26.278Z,11.77
2019-04-26T06:03:12.062Z,11.35
2019-04-26T06:06:12.413Z,11.29
2019-04-26T06:09:01.693Z,11.54
2019-04-26T06:11:44.897Z,11.76
2019-04-26T06:14:39.325Z,11.76
2019-04-26T06:17:28.144Z,11.68
2019-04-26T06:20:08.086Z,11.84
2019-04-26T06:23:01.858Z,11.68
2019-04-26T06:28:53.041Z,11.91
2019-04-26T06:31:31.390Z,11.91
2019-04-26T06:34:12.801Z,11.86
2019-04-26T06:36:53.249Z,11.60
2019-04-26T06:39:53.407Z,11.88
2019-04-26T06:42:54.767Z,12.07
2019-04-26T06:45:34.425Z,11.98
2019-04-26T06:48:40.407Z,12.02
2019-04-26T06:51:39.013Z,11.99
2019-04-26T06:54:14.810Z,12.17
2019-04-26T06:57:20.341Z,12.32
2019-04-26T07:00:18.329Z,12.38
2019-04-26T07:02:59.169Z,12.46
2019-04-26T07:05:31.455Z,12.65
2019-04-26T07:08:15.395Z,12.84
2019-04-26T07:11:03.371Z,13.00
2019-04-26T07:13:56.677Z,12.93
2019-04-26T07:16:29.175Z,12.92
2019-04-26T07:19:24.773Z,13.16
2019-04-26T07:22:16.525Z,13.16
2019-04-26T07:25:26.513Z,13.42
2019-04-26T07:28:06.479Z,13.42
2019-04-26T07:30:51.293Z,13.43
2019-04-26T07:33:39.640Z,13.61
2019-04-26T07:36:29.841Z,13.24
2019-04-26T07:39:26.917Z,13.04
2019-04-26T07:42:22.465Z,13.09
2019-04-26T07:45:05.563Z,13.09
2019-04-26T07:47:43.357Z,12.81
2019-04-26T07:50:36.177Z,12.78
2019-04-26T07:53:20.037Z,12.86
2019-04-26T07:55:57.793Z,13.45
2019-04-26T07:58:53.762Z,13.61
2019-04-26T08:01:51.631Z,13.64
2019-04-26T08:04:29.588Z,13.68
2019-04-26T08:07:10.792Z,13.88
2019-04-26T08:09:46.006Z,14.26
2019-04-26T08:12:17.099Z,14.42
2019-04-26T08:14:56.045Z,14.65
2019-04-26T08:17:42.006Z,14.73
2019-04-26T08:20:21.452Z,14.32
2019-04-26T08:22:53.797Z,14.57
2019-04-26T08:25:25.493Z,14.31
2019-04-26T08:27:58.050Z,14.47
2019-04-26T08:30:50.283Z,14.55
2019-04-26T08:33:27.063Z,14.18
2019-04-26T08:35:59.641Z,14.39
2019-04-26T08:38:29.890Z,14.59
2019-04-26T08:41:00.210Z,14.75
2019-04-26T08:43:45.707Z,14.86
2019-04-26T08:46:36.269Z,15.04
2019-04-26T08:49:13.119Z,15.05
2019-04-26T08:51:45.014Z,15.14
2019-04-26T08:54:20.022Z,14.72
2019-04-26T08:56:52.315Z,14.35
2019-04-26T08:59:30.372Z,14.41
2019-04-26T09:02:03.615Z,14.56
2019-04-26T09:04:43.228Z,14.73
2019-04-26T09:07:17.546Z,14.83
2019-04-26T09:09:57.099Z,14.84
2019-04-26T09:12:23.957Z,14.78
2019-04-26T09:14:56.018Z,14.78
2019-04-26T09:17:27.836Z,14.79
2019-04-26T09:19:58.088Z,14.39
2019-04-26T09:22:31.852Z,14.55
2019-04-26T09:25:03.667Z,14.68
2019-04-26T09:27:34.503Z,14.86
2019-04-26T09:30:10.153Z,15.01
2019-04-26T09:32:43.851Z,14.99
2019-04-26T09:35:15.234Z,14.89
2019-04-26T09:37:44.306Z,14.87
2019-04-26T09:40:21.040Z,14.60
2019-04-26T09:42:52.630Z,14.48
2019-04-26T09:45:23.573Z,14.63
2019-04-26T09:48:00.145Z,14.75
2019-04-26T09:50:45.944Z,14.93
2019-04-26T09:53:15.586Z,15.02
2019-04-26T09:55:44.804Z,14.96
2019-04-26T09:58:14.038Z,14.78
2019-04-26T10:00:44.189Z,14.97
2019-04-26T10:03:14.678Z,14.98
2019-04-26T10:05:43.887Z,14.80
2019-04-26T10:08:14.523Z,14.73
2019-04-26T10:10:43.917Z,14.82
2019-04-26T10:13:23.970Z,14.94
2019-04-26T10:15:58.054Z,14.94
2019-04-26T10:18:26.065Z,14.79
2019-04-26T10:20:55.297Z,15.10
2019-04-26T10:23:24.556Z,15.02
2019-04-26T10:25:53.752Z,15.15
2019-04-26T10:28:23.042Z,15.11
2019-04-26T10:30:52.375Z,15.12
2019-04-26T10:33:21.573Z,15.13
2019-04-26T10:35:52.459Z,15.12
2019-04-26T10:38:23.709Z,15.33
2019-04-26T10:40:52.877Z,15.36
2019-04-26T10:43:22.447Z,15.46
2019-04-26T10:45:53.995Z,15.50
2019-04-26T10:48:23.382Z,15.53
2019-04-26T10:50:52.702Z,15.57
2019-04-26T10:53:35.518Z,15.74
2019-04-26T10:56:24.169Z,15.67
2019-04-26T10:59:06.128Z,15.30
2019-04-26T11:01:36.145Z,15.45
2019-04-26T11:04:05.393Z,15.57
2019-04-26T11:06:34.690Z,15.66
2019-04-26T11:09:06.001Z,15.59
2019-04-26T11:11:36.262Z,15.78
2019-04-26T11:14:05.643Z,15.68
2019-04-26T11:16:37.206Z,15.86
2019-04-26T11:19:06.282Z,15.98
2019-04-26T11:21:35.512Z,15.74
2019-04-26T11:24:04.812Z,15.77
2019-04-26T11:26:34.836Z,15.93
2019-04-26T11:29:05.445Z,16.02
2019-04-26T11:31:34.664Z,16.04
2019-04-26T11:34:05.405Z,15.97
2019-04-26T11:36:37.685Z,15.92
2019-04-26T11:39:09.514Z,15.86
2019-04-26T11:41:39.122Z,15.72
2019-04-26T11:44:08.489Z,15.63
2019-04-26T11:46:44.578Z,15.86
2019-04-26T11:49:15.607Z,15.99
2019-04-26T11:51:44.922Z,16.07
2019-04-26T11:54:16.907Z,15.89
2019-04-26T11:56:45.144Z,15.98
2019-04-26T11:59:14.400Z,15.93
2019-04-26T12:01:43.723Z,15.95
2019-04-26T12:04:17.074Z,16.00
2019-04-26T12:06:47.947Z,15.98
2019-04-26T12:09:33.034Z,16.10
2019-04-26T12:12:04.891Z,16.14
2019-04-26T12:14:34.502Z,16.24
2019-04-26T12:17:04.911Z,16.28
2019-04-26T12:19:34.493Z,16.38
2019-04-26T12:22:04.177Z,16.41
2019-04-26T12:24:34.833Z,16.46
2019-04-26T12:27:04.262Z,16.49
2019-04-26T12:29:33.842Z,16.37
2019-04-26T12:32:03.142Z,16.23
2019-04-26T12:34:32.427Z,16.20
2019-04-26T12:37:01.626Z,16.35
2019-04-26T12:39:32.387Z,16.33
2019-04-26T12:42:01.765Z,16.38
2019-04-26T12:44:36.807Z,16.21
2019-04-26T12:47:05.392Z,16.20
2019-04-26T12:49:35.547Z,16.02
2019-04-26T12:52:05.017Z,16.08
2019-04-26T12:54:34.251Z,16.11
2019-04-26T12:57:05.867Z,16.28
2019-04-26T12:59:43.946Z,16.09
2019-04-26T13:02:06.360Z,16.16
2019-04-26T13:04:36.603Z,16.28
2019-04-26T13:07:22.782Z,16.32
2019-04-26T13:09:43.545Z,16.44
2019-04-26T13:12:14.451Z,16.40
2019-04-26T13:14:54.162Z,16.47
2019-04-26T13:17:25.178Z,16.42
2019-04-26T13:19:55.495Z,16.43
2019-04-26T13:22:24.825Z,16.50
2019-04-26T13:24:54.228Z,16.62
2019-04-26T13:27:23.510Z,16.71
2019-04-26T13:30:01.909Z,16.75
2019-04-26T13:32:23.703Z,16.79
2019-04-26T13:34:52.941Z,16.75
2019-04-26T13:37:22.281Z,16.83
2019-04-26T13:39:55.191Z,16.71
2019-04-26T13:42:40.445Z,16.77
2019-04-26T13:45:17.687Z,16.80
2019-04-26T13:47:59.364Z,16.76
2019-04-26T13:50:35.940Z,16.89
2019-04-26T13:53:05.264Z,16.89
2019-04-26T13:55:34.620Z,16.91
2019-04-26T13:58:03.944Z,16.88
2019-04-26T14:00:33.672Z,16.85
2019-04-26T14:03:02.908Z,16.86
2019-04-26T14:05:32.163Z,16.89
2019-04-26T14:08:01.443Z,16.91
2019-04-26T14:10:30.673Z,16.92
2019-04-26T14:12:59.865Z,16.93
2019-04-26T14:15:29.281Z,16.92
2019-04-26T14:18:00.275Z,16.88
2019-04-26T14:20:47.239Z,16.90
2019-04-26T14:23:34.254Z,16.86
2019-04-26T14:26:11.032Z,16.90
2019-04-26T14:28:42.014Z,16.88
2019-04-26T14:31:12.375Z,16.75
2019-04-26T14:33:42.291Z,16.76
2019-04-26T14:36:17.919Z,16.84
2019-04-26T14:38:42.487Z,16.89
2019-04-26T14:41:13.465Z,16.98
2019-04-26T14:43:42.705Z,16.95
2019-04-26T14:46:14.679Z,16.93
2019-04-26T14:48:44.623Z,16.88
2019-04-26T14:51:16.888Z,16.96
2019-04-26T14:53:45.926Z,16.98
2019-04-26T14:56:16.239Z,17.09
2019-04-26T14:58:45.549Z,17.16
2019-04-26T15:01:16.513Z,17.03
2019-04-26T15:03:57.101Z,16.99
2019-04-26T15:06:28.193Z,16.76
2019-04-26T15:08:57.470Z,16.66
2019-04-26T15:11:26.690Z,16.87
2019-04-26T15:13:55.922Z,16.89
2019-04-26T15:16:25.229Z,16.86
2019-04-26T15:18:54.495Z,16.89
2019-04-26T15:21:27.379Z,16.90
2019-04-26T15:23:55.382Z,16.95
2019-04-26T15:26:29.794Z,16.95
2019-04-26T15:28:56.713Z,16.89
2019-04-26T15:31:26.054Z,16.82
2019-04-26T15:33:55.213Z,16.81
2019-04-26T15:36:24.494Z,16.66
2019-04-26T15:38:54.015Z,16.64
2019-04-26T15:41:33.666Z,16.55
2019-04-26T15:44:13.723Z,16.65
2019-04-26T15:47:03.337Z,16.57
2019-04-26T15:49:37.234Z,16.75
2019-04-26T15:52:06.571Z,16.72
2019-04-26T15:54:37.331Z,16.75
2019-04-26T15:57:06.792Z,16.81
2019-04-26T15:59:36.165Z,16.70
2019-04-26T16:02:05.608Z,16.81
2019-04-26T16:04:34.957Z,16.79
2019-04-26T16:07:04.403Z,16.85
2019-04-26T16:09:33.728Z,16.76
2019-04-26T16:12:03.641Z,16.72
2019-04-26T16:14:36.633Z,16.80
2019-04-26T16:17:06.581Z,16.82
2019-04-26T16:19:35.316Z,16.72
2019-04-26T16:22:04.952Z,16.84
2019-04-26T16:24:34.639Z,16.83
2019-04-26T16:27:04.007Z,16.80
2019-04-26T16:29:37.559Z,16.66
2019-04-26T16:32:08.638Z,16.79
2019-04-26T16:34:47.571Z,16.75
2019-04-26T16:37:14.979Z,16.77
2019-04-26T16:39:48.411Z,16.19
2019-04-26T16:42:15.060Z,16.73
2019-04-26T16:44:45.072Z,16.77
2019-04-26T16:47:14.499Z,16.83
2019-04-26T16:49:46.455Z,16.85
2019-04-26T16:52:14.714Z,16.88
2019-04-26T16:54:46.058Z,16.74
2019-04-26T16:57:15.330Z,16.76
2019-04-26T16:59:49.189Z,16.72
2019-04-26T17:02:20.946Z,16.70
2019-04-26T17:04:46.822Z,16.81
2019-04-26T17:07:21.881Z,16.76
2019-04-26T17:09:58.963Z,16.75
2019-04-26T17:12:19.878Z,16.85
2019-04-26T17:14:49.463Z,16.89
2019-04-26T17:17:19.115Z,16.95
2019-04-26T17:19:49.933Z,16.98
2019-04-26T17:22:23.624Z,17.00
2019-04-26T17:25:00.107Z,16.90
2019-04-26T17:27:29.380Z,16.91
2019-04-26T17:29:58.601Z,16.77
2019-04-26T17:32:27.998Z,16.83
2019-04-26T17:34:59.489Z,16.93
2019-04-26T17:37:34.213Z,16.90
2019-04-26T17:40:03.604Z,16.97
2019-04-26T17:42:36.387Z,16.97
2019-04-26T17:45:07.043Z,16.91
2019-04-26T17:47:39.888Z,16.82
2019-04-26T17:50:07.841Z,16.68
2019-04-26T17:52:37.788Z,16.55
2019-04-26T17:55:07.728Z,16.70
2019-04-26T17:57:43.533Z,16.69
2019-04-26T18:00:13.755Z,16.70
2019-04-26T18:02:47.707Z,16.67
2019-04-26T18:05:13.012Z,16.62
2019-04-26T18:07:50.257Z,16.65
2019-04-26T18:10:13.820Z,16.68
2019-04-26T18:12:47.157Z,16.73
2019-04-26T18:15:19.271Z,16.76
2019-04-26T18:18:09.660Z,16.72
2019-04-26T18:20:50.555Z,16.12
2019-04-26T18:23:21.423Z,16.55
2019-04-26T18:25:50.673Z,16.46
2019-04-26T18:28:19.977Z,16.41
2019-04-26T18:30:49.192Z,16.43
2019-04-26T18:33:22.465Z,16.50
2019-04-26T18:35:55.862Z,16.52
2019-04-26T18:38:20.882Z,16.45
2019-04-26T18:41:01.123Z,16.43
2019-04-26T18:43:24.252Z,16.41
2019-04-26T18:45:54.429Z,16.18
2019-04-26T18:48:24.117Z,16.24
2019-04-26T18:50:55.284Z,16.21
2019-04-26T18:53:39.455Z,16.11
2019-04-26T18:56:07.754Z,15.74
2019-04-26T18:58:38.567Z,16.19
2019-04-26T19:01:10.389Z,16.09
2019-04-26T19:03:39.597Z,16.04
2019-04-26T19:06:08.903Z,16.17
2019-04-26T19:08:47.710Z,16.18
2019-04-26T19:11:11.719Z,16.25
2019-04-26T19:13:56.335Z,15.97
2019-04-26T19:16:26.692Z,15.94
2019-04-26T19:18:59.987Z,15.82
2019-04-26T19:21:32.349Z,15.88
2019-04-26T19:24:07.357Z,15.66
2019-04-26T19:26:34.964Z,15.72
2019-04-26T19:29:15.534Z,15.73
2019-04-26T19:31:35.879Z,15.78
2019-04-26T19:34:05.235Z,15.81
2019-04-26T19:36:35.663Z,15.73
2019-04-26T19:39:06.925Z,15.75
2019-04-26T19:41:36.179Z,15.80
2019-04-26T19:44:05.766Z,15.80
2019-04-26T19:46:36.707Z,15.70
2019-04-26T19:49:25.757Z,15.69
2019-04-26T19:52:03.888Z,15.56
2019-04-26T19:54:43.972Z,15.40
2019-04-26T19:57:24.108Z,15.52
2019-04-26T19:59:53.440Z,15.71
2019-04-26T20:02:26.832Z,15.70
2019-04-26T20:04:53.675Z,15.77
2019-04-26T20:07:24.156Z,15.72
2019-04-26T20:09:56.265Z,15.47
2019-04-26T20:12:25.342Z,15.47
2019-04-26T20:14:58.432Z,15.43
2019-04-26T20:17:25.524Z,15.23
2019-04-26T20:19:55.631Z,15.20
2019-04-26T20:22:28.444Z,15.32
2019-04-26T20:24:57.563Z,15.31
2019-04-26T20:27:28.025Z,15.33
2019-04-26T20:29:58.441Z,15.28
2019-04-26T20:32:29.626Z,15.37
2019-04-26T20:35:00.520Z,15.37
2019-04-26T20:37:29.816Z,15.37
2019-04-26T20:40:16.186Z,15.10
2019-04-26T20:42:31.553Z,15.15
2019-04-26T20:45:04.479Z,15.09
2019-04-26T20:47:32.111Z,15.01
2019-04-26T20:50:03.022Z,15.11
2019-04-26T20:52:32.318Z,15.09
2019-04-26T20:55:01.682Z,15.23
2019-04-26T20:57:34.374Z,15.10
2019-04-26T21:00:05.336Z,15.10
2019-04-26T21:02:32.894Z,15.04
2019-04-26T21:05:05.907Z,15.08
2019-04-26T21:07:33.092Z,14.98
2019-04-26T21:10:02.468Z,14.94
2019-04-26T21:12:31.699Z,15.00
2019-04-26T21:15:02.432Z,15.02
2019-04-26T21:17:32.321Z,14.82
2019-04-26T21:20:02.292Z,14.73
2019-04-26T21:22:31.827Z,14.73
2019-04-26T21:25:05.596Z,14.63
2019-04-26T21:27:36.506Z,14.71
2019-04-26T21:30:24.139Z,14.76
2019-04-26T21:32:59.346Z,14.86
2019-04-26T21:35:46.531Z,14.67
2019-04-26T21:38:29.675Z,14.54
2019-04-26T21:41:15.042Z,14.50
2019-04-26T21:43:45.040Z,14.40
2019-04-26T21:46:19.008Z,14.56
2019-04-26T21:48:45.213Z,14.55
2019-04-26T21:51:16.065Z,14.56
2019-04-26T21:53:45.496Z,14.47
2019-04-26T21:56:14.969Z,14.49
2019-04-26T21:58:46.177Z,14.56
2019-04-26T22:01:19.281Z,14.63
2019-04-26T22:03:54.469Z,14.64
2019-04-26T22:06:23.996Z,14.45
2019-04-26T22:08:56.622Z,14.34
2019-04-26T22:11:23.715Z,14.25
2019-04-26T22:14:00.286Z,14.37
2019-04-26T22:16:40.023Z,14.41
2019-04-26T22:19:14.586Z,14.49
2019-04-26T22:21:52.729Z,14.11
2019-04-26T22:24:35.668Z,14.06
2019-04-26T22:27:05.014Z,14.23
2019-04-26T22:29:34.191Z,14.23
2019-04-26T22:32:03.775Z,14.26
2019-04-26T22:34:33.100Z,14.24
2019-04-26T22:37:11.103Z,14.22
2019-04-26T22:39:39.905Z,14.15
2019-04-26T22:42:04.538Z,14.08
2019-04-26T22:44:37.970Z,14.23
2019-04-26T22:47:08.813Z,14.21
2019-04-26T22:49:41.899Z,14.13
2019-04-26T22:52:11.232Z,14.02
2019-04-26T22:54:42.935Z,13.96
2019-04-26T22:57:13.028Z,13.88
2019-04-26T22:59:43.242Z,13.73
2019-04-26T23:02:18.396Z,13.92
2019-04-26T23:04:45.745Z,13.75
2019-04-26T23:07:21.101Z,13.74
2019-04-26T23:09:52.046Z,13.73
2019-04-26T23:12:27.924Z,13.55
2019-04-26T23:15:10.679Z,13.57
2019-04-26T23:17:59.484Z,13.70
2019-04-26T23:20:37.604Z,13.72
2019-04-26T23:23:08.342Z,13.58
2019-04-26T23:25:35.594Z,13.43
2019-04-26T23:28:04.811Z,13.23
2019-04-26T23:30:34.020Z,13.16
2019-04-26T23:33:03.233Z,13.34
2019-04-26T23:35:37.502Z,13.39
2019-04-26T23:38:05.234Z,13.47
2019-04-26T23:40:34.265Z,13.54
2019-04-26T23:43:03.475Z,13.46
2019-04-26T23:45:33.301Z,13.45
2019-04-26T23:48:03.535Z,13.35
2019-04-26T23:50:34.086Z,13.28
2019-04-26T23:53:03.426Z,13.35
2019-04-26T23:55:33.809Z,13.04
2019-04-26T23:58:06.471Z,13.16
